createdAt,value
2023-10-26T00:01:49.691Z,101366.44
2023-10-26T00:04:17.712Z,101367.22
2023-10-26T00:06:45.342Z,101375.25
2023-10-26T00:09:13.293Z,101368.97
2023-10-26T00:11:41.020Z,101363.75
2023-10-26T00:14:08.752Z,101352.69
2023-10-26T00:16:36.726Z,101348.28
2023-10-26T00:19:05.052Z,101355.09
2023-10-26T00:21:32.758Z,101353.47
2023-10-26T00:24:00.347Z,101349.06
2023-10-26T00:26:28.319Z,101342.13
2023-10-26T00:28:56.216Z,101344.72
2023-10-26T00:31:24.430Z,101343.34
2023-10-26T00:33:52.220Z,101339.66
2023-10-26T00:36:20.027Z,101339.03
2023-10-26T00:38:47.770Z,101342.53
2023-10-26T00:41:15.632Z,101339.81
2023-10-26T00:43:43.859Z,101332.84
2023-10-26T00:46:12.753Z,101330.13
2023-10-26T00:48:40.770Z,101340.81
2023-10-26T00:51:08.975Z,101334.75
2023-10-26T00:53:38.455Z,101330.28
2023-10-26T00:56:06.252Z,101326.06
2023-10-26T00:58:34.244Z,101329.59
2023-10-26T01:01:02.089Z,101323.47
2023-10-26T01:03:31.503Z,101321.22
2023-10-26T01:05:59.384Z,101324.34
2023-10-26T01:08:27.031Z,101320.19
2023-10-26T01:10:54.670Z,101321.16
2023-10-26T01:13:22.205Z,101315.59
2023-10-26T01:15:49.785Z,101309.88
2023-10-26T01:18:17.377Z,101314.88
2023-10-26T01:20:45.077Z,101314.88
2023-10-26T01:23:12.806Z,101316.53
2023-10-26T01:25:40.674Z,101310.59
2023-10-26T01:28:08.423Z,101313.28
2023-10-26T01:30:36.113Z,101303.72
2023-10-26T01:33:03.759Z,101304.59
2023-10-26T01:35:39.530Z,101298.38
2023-10-26T01:38:07.133Z,101302.59
2023-10-26T01:40:34.664Z,101295.78
2023-10-26T01:43:02.482Z,101300.31
2023-10-26T01:45:30.408Z,101298.53
2023-10-26T01:48:01.393Z,101285.66
2023-10-26T01:50:30.584Z,101282.94
2023-10-26T01:52:58.875Z,101290.00
2023-10-26T01:55:26.865Z,101282.03
2023-10-26T01:57:54.413Z,101282.78
2023-10-26T02:00:22.324Z,101281.19
2023-10-26T02:02:51.098Z,101283.84
2023-10-26T02:05:18.933Z,101282.88
2023-10-26T02:07:46.526Z,101282.75
2023-10-26T02:10:15.469Z,101279.38
2023-10-26T02:12:43.002Z,101281.84
2023-10-26T02:15:10.954Z,101277.78
2023-10-26T02:17:38.726Z,101276.91
2023-10-26T02:20:06.917Z,101276.91
2023-10-26T02:22:34.373Z,101275.13
2023-10-26T02:25:01.916Z,101277.66
2023-10-26T02:27:29.407Z,101272.44
2023-10-26T02:29:56.972Z,101274.34
2023-10-26T02:32:24.708Z,101271.06
2023-10-26T02:34:52.543Z,101267.38
2023-10-26T02:37:20.683Z,101266.78
2023-10-26T02:39:48.251Z,101261.50
2023-10-26T02:42:15.968Z,101260.59
2023-10-26T02:44:43.740Z,101263.06
2023-10-26T02:47:11.659Z,101262.59
2023-10-26T02:49:39.265Z,101252.22
2023-10-26T02:52:07.056Z,101248.53
2023-10-26T02:54:34.824Z,101247.66
2023-10-26T02:57:02.362Z,101245.31
2023-10-26T02:59:29.987Z,101241.66
2023-10-26T03:01:57.953Z,101243.31
2023-10-26T03:04:25.572Z,101242.50
2023-10-26T03:06:53.070Z,101236.28
2023-10-26T03:09:21.421Z,101231.84
2023-10-26T03:11:48.989Z,101227.59
2023-10-26T03:14:16.478Z,101238.03
2023-10-26T03:16:44.030Z,101232.00
2023-10-26T03:19:11.571Z,101232.00
2023-10-26T03:21:39.280Z,101230.47
2023-10-26T03:24:07.406Z,101224.53
2023-10-26T03:26:35.192Z,101231.91
2023-10-26T03:29:03.860Z,101234.66
2023-10-26T03:31:34.666Z,101219.09
2023-10-26T03:34:02.486Z,101221.72
2023-10-26T03:36:30.407Z,101214.75
2023-10-26T03:38:58.686Z,101226.75
2023-10-26T03:41:26.665Z,101225.84
2023-10-26T03:43:56.012Z,101209.56
2023-10-26T03:46:23.836Z,101217.09
2023-10-26T03:48:51.745Z,101221.44
2023-10-26T03:51:19.649Z,101216.22
2023-10-26T03:53:47.246Z,101208.59
2023-10-26T03:56:14.819Z,101200.84
2023-10-26T03:58:42.561Z,101202.56
2023-10-26T04:01:10.273Z,101202.56
2023-10-26T04:03:37.824Z,101191.09
2023-10-26T04:06:05.979Z,101191.16
2023-10-26T04:08:33.608Z,101195.34
2023-10-26T04:11:01.127Z,101194.47
2023-10-26T04:13:31.710Z,101186.34
2023-10-26T04:16:03.421Z,101186.16
2023-10-26T04:18:30.977Z,101186.25
2023-10-26T04:20:58.766Z,101179.22
2023-10-26T04:23:27.728Z,101181.03
2023-10-26T04:25:55.615Z,101174.13
2023-10-26T04:28:23.962Z,101179.47
2023-10-26T04:30:51.874Z,101180.38
2023-10-26T04:33:19.530Z,101173.28
2023-10-26T04:35:48.318Z,101166.22
2023-10-26T04:38:15.954Z,101168.84
2023-10-26T04:40:44.829Z,101167.16
2023-10-26T04:43:12.625Z,101168.19
2023-10-26T04:45:40.576Z,101159.44
2023-10-26T04:48:08.308Z,101165.38
2023-10-26T04:50:36.288Z,101156.81
2023-10-26T04:53:04.271Z,101157.50
2023-10-26T04:55:34.878Z,101156.69
2023-10-26T04:58:03.716Z,101162.84
2023-10-26T05:00:32.015Z,101149.03
2023-10-26T05:02:59.755Z,101149.84
2023-10-26T05:05:27.942Z,101143.75
2023-10-26T05:07:55.600Z,101147.31
2023-10-26T05:10:23.203Z,101142.81
2023-10-26T05:12:51.076Z,101148.00
2023-10-26T05:15:20.200Z,101145.63
2023-10-26T05:17:47.873Z,101148.31
2023-10-26T05:20:15.691Z,101141.25
2023-10-26T05:22:43.302Z,101138.75
2023-10-26T05:25:12.720Z,101144.78
2023-10-26T05:27:40.466Z,101143.13
2023-10-26T05:30:08.844Z,101141.38
2023-10-26T05:32:36.536Z,101139.50
2023-10-26T05:35:05.502Z,101141.38
2023-10-26T05:37:33.173Z,101146.50
2023-10-26T05:40:00.670Z,101145.00
2023-10-26T05:42:28.259Z,101143.19
2023-10-26T05:44:59.151Z,101138.75
2023-10-26T05:47:26.948Z,101133.50
2023-10-26T05:49:55.740Z,101144.00
2023-10-26T05:52:23.517Z,101136.09
2023-10-26T05:54:53.890Z,101126.47
2023-10-26T05:57:21.595Z,101128.44
2023-10-26T05:59:49.200Z,101137.72
2023-10-26T06:02:16.965Z,101129.09
2023-10-26T06:04:44.919Z,101136.25
2023-10-26T06:07:13.070Z,101124.72
2023-10-26T06:09:41.065Z,101119.72
2023-10-26T06:12:09.146Z,101127.44
2023-10-26T06:14:37.949Z,101115.00
2023-10-26T06:17:05.507Z,101116.97
2023-10-26T06:19:34.970Z,101110.91
2023-10-26T06:22:03.719Z,101110.91
2023-10-26T06:24:31.548Z,101115.16
2023-10-26T06:26:59.438Z,101115.16
2023-10-26T06:29:27.776Z,101105.53
2023-10-26T06:31:55.619Z,101110.91
2023-10-26T06:34:23.525Z,101104.06
2023-10-26T06:36:51.282Z,101103.47
2023-10-26T06:39:18.930Z,101107.63
2023-10-26T06:41:46.508Z,101099.78
2023-10-26T06:44:14.097Z,101092.63
2023-10-26T06:46:41.661Z,101093.38
2023-10-26T06:49:22.988Z,101093.19
2023-10-26T06:51:56.949Z,101098.31
2023-10-26T06:54:24.647Z,101089.78
2023-10-26T06:56:52.253Z,101084.41
2023-10-26T06:59:20.291Z,101082.69
2023-10-26T07:02:09.744Z,101089.78
2023-10-26T07:04:36.957Z,101081.13
2023-10-26T07:07:04.845Z,101086.31
2023-10-26T07:09:32.759Z,101087.13
2023-10-26T07:12:00.862Z,101074.78
2023-10-26T07:14:28.718Z,101067.00
2023-10-26T07:16:56.488Z,101074.56
2023-10-26T07:19:24.219Z,101070.06
2023-10-26T07:21:51.719Z,101060.41
2023-10-26T07:24:19.535Z,101058.22
2023-10-26T07:26:50.686Z,101064.84
2023-10-26T07:29:18.529Z,101057.94
2023-10-26T07:31:47.939Z,101051.31
2023-10-26T07:34:17.420Z,101055.31
2023-10-26T07:36:44.977Z,101061.53
2023-10-26T07:39:46.072Z,101058.00
2023-10-26T07:42:07.327Z,101055.06
2023-10-26T07:44:39.890Z,101047.06
2023-10-26T07:47:10.602Z,101048.69
2023-10-26T07:49:38.503Z,101050.97
2023-10-26T07:52:06.592Z,101042.00
2023-10-26T07:54:34.426Z,101045.28
2023-10-26T07:57:02.386Z,101036.56
2023-10-26T07:59:31.356Z,101036.50
2023-10-26T08:01:59.058Z,101026.09
2023-10-26T08:04:29.203Z,101033.78
2023-10-26T08:06:56.731Z,101019.91
2023-10-26T08:09:24.219Z,101020.19
2023-10-26T08:11:51.742Z,101023.63
2023-10-26T08:14:37.292Z,101017.38
2023-10-26T08:17:08.133Z,101026.06
2023-10-26T08:19:36.013Z,101020.75
2023-10-26T08:22:03.678Z,101024.75
2023-10-26T08:24:32.891Z,101018.75
2023-10-26T08:27:00.421Z,101010.81
2023-10-26T08:29:29.649Z,101009.66
2023-10-26T08:31:57.663Z,101018.22
2023-10-26T08:34:26.943Z,101017.53
2023-10-26T08:37:11.657Z,101011.94
2023-10-26T08:39:41.894Z,101010.88
2023-10-26T08:42:10.003Z,100999.53
2023-10-26T08:44:38.986Z,101006.66
2023-10-26T08:47:07.422Z,100996.75
2023-10-26T08:49:36.274Z,100999.31
2023-10-26T08:52:05.077Z,100986.41
2023-10-26T08:54:32.733Z,100989.50
2023-10-26T08:57:07.726Z,100992.13
2023-10-26T08:59:36.866Z,100980.84
2023-10-26T09:02:05.782Z,100984.84
2023-10-26T09:04:33.867Z,100985.91
2023-10-26T09:07:01.359Z,100970.25
2023-10-26T09:09:28.969Z,100974.41
2023-10-26T09:12:09.875Z,100973.75
2023-10-26T09:14:37.926Z,100973.38
2023-10-26T09:17:05.604Z,100966.16
2023-10-26T09:19:39.543Z,100970.91
2023-10-26T09:22:08.889Z,100975.06
2023-10-26T09:24:36.640Z,100970.75
2023-10-26T09:27:04.587Z,100972.56
2023-10-26T09:29:43.428Z,100962.81
2023-10-26T09:32:12.067Z,100961.81
2023-10-26T09:34:45.015Z,100953.97
2023-10-26T09:37:13.145Z,100939.97
2023-10-26T09:39:44.472Z,100944.34
2023-10-26T09:42:13.377Z,100949.31
2023-10-26T09:44:41.551Z,100935.41
2023-10-26T09:47:09.862Z,100935.16
2023-10-26T09:49:37.610Z,100935.09
2023-10-26T09:52:05.520Z,100933.38
2023-10-26T09:54:37.085Z,100925.03
2023-10-26T09:57:12.040Z,100928.19
2023-10-26T09:59:40.054Z,100928.09
2023-10-26T10:02:15.446Z,100926.22
2023-10-26T10:04:45.151Z,100920.06
2023-10-26T10:07:44.337Z,100916.66
2023-10-26T10:10:13.508Z,100915.75
2023-10-26T10:12:43.793Z,100912.34
2023-10-26T10:15:36.140Z,100913.34
2023-10-26T10:18:03.077Z,100904.63
2023-10-26T10:20:33.208Z,100903.88
2023-10-26T10:23:02.212Z,100895.09
2023-10-26T10:25:51.875Z,100891.63
2023-10-26T10:28:20.065Z,100887.28
2023-10-26T10:30:58.260Z,100889.78
2023-10-26T10:33:29.830Z,100886.19
2023-10-26T10:36:05.949Z,100888.56
2023-10-26T10:38:33.571Z,100885.13
2023-10-26T10:41:01.555Z,100884.31
2023-10-26T10:43:40.479Z,100880.75
2023-10-26T10:46:16.295Z,100877.28
2023-10-26T10:49:07.340Z,100874.59
2023-10-26T10:51:36.782Z,100878.03
2023-10-26T10:54:26.516Z,100864.94
2023-10-26T10:57:00.559Z,100863.34
2023-10-26T10:59:30.851Z,100849.72
2023-10-26T11:02:10.526Z,100865.00
2023-10-26T11:05:15.706Z,100863.91
2023-10-26T11:07:44.011Z,100869.97
2023-10-26T11:10:12.257Z,100867.19
2023-10-26T11:12:40.188Z,100867.09
2023-10-26T11:15:09.011Z,100872.41
2023-10-26T11:17:40.662Z,100855.38
2023-10-26T11:20:38.745Z,100864.44
2023-10-26T11:23:09.230Z,100870.31
2023-10-26T11:25:37.673Z,100867.09
2023-10-26T11:28:07.988Z,100852.72
2023-10-26T11:30:49.159Z,100863.59
2023-10-26T11:33:40.941Z,100861.63
2023-10-26T11:36:13.593Z,100856.34
2023-10-26T11:38:52.356Z,100865.25
2023-10-26T11:41:24.277Z,100855.66
2023-10-26T11:43:53.641Z,100854.91
2023-10-26T11:49:44.443Z,100859.03
2023-10-26T11:52:12.321Z,100855.00
2023-10-26T11:54:52.458Z,100848.09
2023-10-26T11:57:20.267Z,100853.28
2023-10-26T11:59:48.416Z,100853.59
2023-10-26T12:02:16.454Z,100839.41
2023-10-26T12:04:44.199Z,100835.88
2023-10-26T12:07:11.669Z,100830.69
2023-10-26T12:09:39.201Z,100833.06
2023-10-26T12:12:07.595Z,100822.84
2023-10-26T12:14:35.458Z,100830.28
2023-10-26T12:17:03.337Z,100810.28
2023-10-26T12:19:31.252Z,100824.13
2023-10-26T12:22:02.784Z,100819.84
2023-10-26T12:24:31.201Z,100811.88
2023-10-26T12:27:00.215Z,100812.00
2023-10-26T12:29:41.051Z,100812.09
2023-10-26T12:32:09.187Z,100805.94
2023-10-26T12:34:37.494Z,100805.94
2023-10-26T12:37:05.860Z,100791.94
2023-10-26T12:39:34.100Z,100798.06
2023-10-26T12:42:01.930Z,100797.34
2023-10-26T12:44:29.397Z,100798.22
2023-10-26T12:46:57.623Z,100785.41
2023-10-26T12:49:25.257Z,100799.00
2023-10-26T12:51:53.178Z,100792.97
2023-10-26T12:54:21.100Z,100788.75
2023-10-26T12:56:49.061Z,100784.94
2023-10-26T12:59:16.577Z,100789.22
2023-10-26T13:01:44.562Z,100779.06
2023-10-26T13:04:12.173Z,100781.81
2023-10-26T13:06:40.763Z,100784.41
2023-10-26T13:09:08.937Z,100768.91
2023-10-26T13:11:36.696Z,100775.50
2023-10-26T13:14:07.015Z,100773.97
2023-10-26T13:16:57.024Z,100774.19
2023-10-26T13:19:23.891Z,100758.47
2023-10-26T13:21:51.949Z,100761.69
2023-10-26T13:24:19.931Z,100773.97
2023-10-26T13:26:48.016Z,100773.91
2023-10-26T13:29:15.815Z,100747.47
2023-10-26T13:31:43.752Z,100776.41
2023-10-26T13:34:11.415Z,100757.84
2023-10-26T13:36:39.020Z,100754.22
2023-10-26T13:39:06.510Z,100756.75
2023-10-26T13:41:34.158Z,100768.69
2023-10-26T13:44:02.069Z,100760.00
2023-10-26T13:46:30.037Z,100765.50
2023-10-26T13:48:57.755Z,100760.81
2023-10-26T13:51:25.722Z,100759.44
2023-10-26T13:53:53.521Z,100750.88
2023-10-26T13:56:22.773Z,100765.31
2023-10-26T13:58:50.614Z,100762.69
2023-10-26T14:01:18.320Z,100763.47
2023-10-26T14:03:46.568Z,100748.13
2023-10-26T14:06:14.605Z,100755.88
2023-10-26T14:08:42.105Z,100759.19
2023-10-26T14:11:10.040Z,100752.41
2023-10-26T14:13:37.928Z,100744.59
2023-10-26T14:16:06.200Z,100750.50
2023-10-26T14:18:34.060Z,100747.09
2023-10-26T14:21:01.816Z,100731.03
2023-10-26T14:23:29.697Z,100736.97
2023-10-26T14:25:57.320Z,100749.69
2023-10-26T14:28:25.122Z,100736.88
2023-10-26T14:30:56.279Z,100722.94
2023-10-26T14:33:25.137Z,100740.22
2023-10-26T14:35:53.632Z,100729.31
2023-10-26T14:38:21.471Z,100729.16
2023-10-26T14:40:56.604Z,100715.59
2023-10-26T14:43:25.531Z,100718.06
2023-10-26T14:45:54.005Z,100725.91
2023-10-26T14:48:22.143Z,100729.28
2023-10-26T14:50:58.193Z,100732.56
2023-10-26T14:53:26.624Z,100723.06
2023-10-26T14:55:54.702Z,100713.69
2023-10-26T14:58:23.234Z,100714.59
2023-10-26T15:00:52.498Z,100714.66
2023-10-26T15:03:20.404Z,100720.59
2023-10-26T15:05:48.978Z,100720.50
2023-10-26T15:08:16.886Z,100714.38
2023-10-26T15:10:48.958Z,100714.13
2023-10-26T15:13:16.894Z,100717.47
2023-10-26T15:15:44.763Z,100719.97
2023-10-26T15:18:13.486Z,100707.09
2023-10-26T15:20:41.271Z,100718.38
2023-10-26T15:23:08.879Z,100714.91
2023-10-26T15:25:37.190Z,100718.25
2023-10-26T15:28:04.849Z,100715.75
2023-10-26T15:30:32.808Z,100711.44
2023-10-26T15:33:00.481Z,100714.75
2023-10-26T15:35:28.379Z,100706.97
2023-10-26T15:37:56.308Z,100715.97
2023-10-26T15:40:24.361Z,100719.44
2023-10-26T15:42:51.865Z,100712.25
2023-10-26T15:45:19.591Z,100709.56
2023-10-26T15:47:47.092Z,100707.88
2023-10-26T15:50:14.963Z,100704.44
2023-10-26T15:52:42.743Z,100714.66
2023-10-26T15:55:10.594Z,100714.13
2023-10-26T15:57:38.337Z,100713.94
2023-10-26T16:00:10.787Z,100713.81
2023-10-26T16:02:39.079Z,100712.78
2023-10-26T16:05:07.398Z,100707.72
2023-10-26T16:07:34.938Z,100704.00
2023-10-26T16:10:02.833Z,100705.88
2023-10-26T16:12:30.800Z,100702.97
2023-10-26T16:14:58.684Z,100702.22
2023-10-26T16:17:26.195Z,100704.84
2023-10-26T16:19:53.853Z,100700.00
2023-10-26T16:22:21.344Z,100709.25
2023-10-26T16:24:52.436Z,100707.44
2023-10-26T16:27:19.984Z,100709.19
2023-10-26T16:29:48.030Z,100704.84
2023-10-26T16:32:18.019Z,100693.72
2023-10-26T16:34:45.586Z,100705.97
2023-10-26T16:37:13.218Z,100700.69
2023-10-26T16:39:40.775Z,100697.13
2023-10-26T16:42:08.620Z,100698.78
2023-10-26T16:44:36.498Z,100697.03
2023-10-26T16:47:04.580Z,100696.78
2023-10-26T16:49:32.299Z,100694.94
2023-10-26T16:52:00.784Z,100691.56
2023-10-26T16:54:29.148Z,100697.66
2023-10-26T16:56:56.918Z,100697.66
2023-10-26T16:59:24.430Z,100691.47
2023-10-26T17:01:51.931Z,100689.88
2023-10-26T17:04:19.448Z,100687.94
2023-10-26T17:06:47.042Z,100687.13
2023-10-26T17:09:14.604Z,100688.34
2023-10-26T17:11:42.118Z,100693.38
2023-10-26T17:14:09.642Z,100688.91
2023-10-26T17:16:37.254Z,100685.34
2023-10-26T17:19:05.061Z,100687.13
2023-10-26T17:21:32.574Z,100679.31
2023-10-26T17:24:00.443Z,100679.16
2023-10-26T17:26:28.343Z,100675.06
2023-10-26T17:28:57.709Z,100674.06
2023-10-26T17:31:25.556Z,100685.28
2023-10-26T17:33:54.192Z,100673.13
2023-10-26T17:36:22.226Z,100677.44
2023-10-26T17:38:49.959Z,100673.97
2023-10-26T17:41:17.617Z,100680.16
2023-10-26T17:43:45.195Z,100682.66
2023-10-26T17:46:15.402Z,100683.53
2023-10-26T17:48:45.173Z,100685.16
2023-10-26T17:51:14.447Z,100674.84
2023-10-26T17:53:43.169Z,100673.00
2023-10-26T17:56:13.829Z,100677.34
2023-10-26T17:58:42.683Z,100672.13
2023-10-26T18:01:11.749Z,100674.81
2023-10-26T18:03:39.596Z,100678.97
2023-10-26T18:06:07.452Z,100669.38
2023-10-26T18:08:37.342Z,100678.19
2023-10-26T18:11:05.963Z,100678.03
2023-10-26T18:13:35.302Z,100673.72
2023-10-26T18:16:11.649Z,100672.81
2023-10-26T18:18:39.804Z,100666.66
2023-10-26T18:21:08.975Z,100667.75
2023-10-26T18:23:37.620Z,100661.44
2023-10-26T18:26:13.555Z,100666.00
2023-10-26T18:28:45.363Z,100666.53
2023-10-26T18:31:18.541Z,100668.38
2023-10-26T18:33:50.481Z,100667.53
2023-10-26T18:36:20.105Z,100663.13
2023-10-26T18:38:49.248Z,100659.69
2023-10-26T18:41:21.228Z,100666.53
2023-10-26T18:43:50.094Z,100666.53
2023-10-26T18:46:18.091Z,100659.53
2023-10-26T18:48:45.705Z,100661.13
2023-10-26T18:51:13.377Z,100666.25
2023-10-26T18:53:42.681Z,100664.63
2023-10-26T18:56:17.578Z,100652.38
2023-10-26T18:58:45.824Z,100659.66
2023-10-26T19:01:13.690Z,100653.47
2023-10-26T19:03:57.419Z,100658.72
2023-10-26T19:06:28.726Z,100647.28
2023-10-26T19:08:56.340Z,100651.75
2023-10-26T19:11:24.235Z,100649.22
2023-10-26T19:13:54.242Z,100654.19
2023-10-26T19:16:22.540Z,100645.47
2023-10-26T19:18:50.604Z,100643.81
2023-10-26T19:21:18.775Z,100636.94
2023-10-26T19:23:46.924Z,100646.38
2023-10-26T19:26:15.718Z,100640.28
2023-10-26T19:28:43.308Z,100645.56
2023-10-26T19:31:12.625Z,100643.88
2023-10-26T19:33:43.170Z,100643.88
2023-10-26T19:36:11.088Z,100636.78
2023-10-26T19:38:39.286Z,100637.66
2023-10-26T19:41:07.494Z,100640.19
2023-10-26T19:43:35.610Z,100634.22
2023-10-26T19:46:03.559Z,100637.53
2023-10-26T19:48:31.166Z,100637.31
2023-10-26T19:51:00.324Z,100639.88
2023-10-26T19:53:34.440Z,100634.06
2023-10-26T19:56:03.636Z,100636.72
2023-10-26T19:58:31.375Z,100634.06
2023-10-26T20:00:58.947Z,100637.41
2023-10-26T20:03:26.549Z,100626.97
2023-10-26T20:05:57.408Z,100635.75
2023-10-26T20:08:25.643Z,100633.13
2023-10-26T20:10:53.359Z,100632.50
2023-10-26T20:13:20.894Z,100623.88
2023-10-26T20:15:48.975Z,100622.78
2023-10-26T20:18:16.844Z,100626.41
2023-10-26T20:20:44.749Z,100623.75
2023-10-26T20:23:12.586Z,100622.78
2023-10-26T20:25:41.003Z,100626.13
2023-10-26T20:28:11.029Z,100626.28
2023-10-26T20:30:38.877Z,100620.31
2023-10-26T20:33:06.462Z,100618.66
2023-10-26T20:35:33.957Z,100619.31
2023-10-26T20:38:01.665Z,100617.69
2023-10-26T20:40:29.486Z,100616.09
2023-10-26T20:42:59.275Z,100615.84
2023-10-26T20:45:27.371Z,100614.25
2023-10-26T20:47:55.216Z,100610.72
2023-10-26T20:50:23.450Z,100605.81
2023-10-26T20:52:51.335Z,100608.94
2023-10-26T20:55:18.995Z,100604.50
2023-10-26T20:57:46.871Z,100608.09
2023-10-26T21:00:15.226Z,100603.78
2023-10-26T21:02:43.138Z,100602.19
2023-10-26T21:05:11.069Z,100597.59
2023-10-26T21:07:38.872Z,100595.78
2023-10-26T21:10:07.226Z,100592.78
2023-10-26T21:12:35.120Z,100590.78
2023-10-26T21:15:03.043Z,100587.09
2023-10-26T21:17:31.833Z,100587.22
2023-10-26T21:19:59.629Z,100581.88
2023-10-26T21:22:27.226Z,100585.34
2023-10-26T21:24:54.799Z,100582.97
2023-10-26T21:27:22.394Z,100583.63
2023-10-26T21:29:50.729Z,100577.66
2023-10-26T21:32:19.433Z,100575.97
2023-10-26T21:34:47.275Z,100575.72
2023-10-26T21:37:15.160Z,100573.94
2023-10-26T21:39:43.569Z,100580.13
2023-10-26T21:42:11.482Z,100569.56
2023-10-26T21:44:39.197Z,100567.81
2023-10-26T21:47:07.132Z,100573.81
2023-10-26T21:49:34.617Z,100558.22
2023-10-26T21:52:02.268Z,100560.94
2023-10-26T21:54:29.786Z,100557.47
2023-10-26T21:56:57.663Z,100555.69
2023-10-26T21:59:25.215Z,100561.88
2023-10-26T22:01:53.051Z,100552.22
2023-10-26T22:04:22.538Z,100557.69
2023-10-26T22:06:51.451Z,100553.25
2023-10-26T22:09:22.182Z,100550.50
2023-10-26T22:11:50.456Z,100552.25
2023-10-26T22:14:18.798Z,100549.66
2023-10-26T22:16:47.353Z,100541.72
2023-10-26T22:19:14.919Z,100549.91
2023-10-26T22:21:42.728Z,100543.75
2023-10-26T22:24:10.816Z,100541.78
2023-10-26T22:26:38.621Z,100535.06
2023-10-26T22:29:07.960Z,100533.31
2023-10-26T22:31:37.961Z,100533.94
2023-10-26T22:34:07.056Z,100533.19
2023-10-26T22:36:37.621Z,100531.34
2023-10-26T22:39:05.573Z,100520.13
2023-10-26T22:41:33.101Z,100524.41
2023-10-26T22:44:00.595Z,100521.88
2023-10-26T22:46:28.119Z,100507.13
2023-10-26T22:48:55.655Z,100515.88
2023-10-26T22:51:23.169Z,100506.41
2023-10-26T22:53:50.662Z,100496.72
2023-10-26T22:56:21.352Z,100499.13
2023-10-26T22:58:49.037Z,100494.78
2023-10-26T23:01:16.544Z,100494.06
2023-10-26T23:03:44.116Z,100492.16
2023-10-26T23:06:12.350Z,100489.66
2023-10-26T23:08:40.447Z,100489.00
2023-10-26T23:11:08.027Z,100485.16
2023-10-26T23:13:35.531Z,100487.72
2023-10-26T23:16:04.291Z,100481.06
2023-10-26T23:18:32.158Z,100486.00
2023-10-26T23:20:59.886Z,100482.94
2023-10-26T23:23:27.441Z,100481.19
2023-10-26T23:25:55.014Z,100471.59
2023-10-26T23:28:22.618Z,100474.22
2023-10-26T23:30:50.422Z,100470.78
2023-10-26T23:33:18.241Z,100471.59
2023-10-26T23:35:46.204Z,100470.75
2023-10-26T23:38:14.506Z,100465.53
2023-10-26T23:40:42.517Z,100462.97
2023-10-26T23:43:10.354Z,100459.34
2023-10-26T23:45:37.855Z,100469.25
2023-10-26T23:48:05.466Z,100461.59
2023-10-26T23:50:33.066Z,100464.97
2023-10-26T23:53:00.551Z,100463.94
2023-10-26T23:55:28.092Z,100463.91
2023-10-26T23:57:55.684Z,100461.22
